createdAt,value
2022-11-15T00:00:57.932Z,1.20
2022-11-15T00:03:26.989Z,1.10
2022-11-15T00:05:53.807Z,1.20
2022-11-15T00:08:20.882Z,1.20
2022-11-15T00:10:58.805Z,1.20
2022-11-15T00:13:25.632Z,1.20
2022-11-15T00:15:52.473Z,1.30
2022-11-15T00:18:19.543Z,1.20
2022-11-15T00:20:46.263Z,1.20
2022-11-15T00:23:13.019Z,1.20
2022-11-15T00:25:39.955Z,1.20
2022-11-15T00:28:06.669Z,1.20
2022-11-15T00:30:33.721Z,1.30
2022-11-15T00:33:06.901Z,1.30
2022-11-15T00:35:35.111Z,1.30
2022-11-15T00:38:02.719Z,1.20
2022-11-15T00:40:30.364Z,1.20
2022-11-15T00:42:57.297Z,1.20
2022-11-15T00:45:24.723Z,1.20
2022-11-15T00:47:51.461Z,1.20
2022-11-15T00:50:18.853Z,1.20
2022-11-15T00:52:46.098Z,1.20
2022-11-15T00:55:18.601Z,1.20
2022-11-15T00:57:46.307Z,1.10
2022-11-15T01:00:13.506Z,1.10
2022-11-15T01:02:40.263Z,1.00
2022-11-15T01:05:07.554Z,0.90
2022-11-15T01:07:34.488Z,0.90
2022-11-15T01:10:01.567Z,0.90
2022-11-15T01:12:28.982Z,0.90
2022-11-15T01:14:55.879Z,0.80
2022-11-15T01:17:22.786Z,0.80
2022-11-15T01:19:49.566Z,0.80
2022-11-15T01:22:16.624Z,0.80
2022-11-15T01:24:43.580Z,0.80
2022-11-15T01:27:10.571Z,0.90
2022-11-15T01:29:37.345Z,1.00
2022-11-15T01:32:04.341Z,1.00
2022-11-15T01:34:31.142Z,1.00
2022-11-15T01:36:57.841Z,1.00
2022-11-15T01:39:24.612Z,1.00
2022-11-15T01:41:51.425Z,1.00
2022-11-15T01:44:49.471Z,0.90
2022-11-15T01:47:32.675Z,1.00
2022-11-15T01:50:02.180Z,1.00
2022-11-15T01:52:31.963Z,1.10
2022-11-15T01:55:20.960Z,1.10
2022-11-15T01:57:51.230Z,1.10
2022-11-15T02:00:18.459Z,1.10
2022-11-15T02:02:45.216Z,1.10
2022-11-15T02:05:12.713Z,1.10
2022-11-15T02:07:39.645Z,1.00
2022-11-15T02:10:17.722Z,1.10
2022-11-15T02:12:44.615Z,1.10
2022-11-15T02:15:12.553Z,1.10
2022-11-15T02:18:14.608Z,1.10
2022-11-15T02:21:02.654Z,1.10
2022-11-15T02:23:35.532Z,1.10
2022-11-15T02:26:21.544Z,1.20
2022-11-15T02:29:17.339Z,1.20
2022-11-15T02:31:56.267Z,1.30
2022-11-15T02:34:43.039Z,1.40
2022-11-15T02:37:36.745Z,1.40
2022-11-15T02:40:27.648Z,1.40
2022-11-15T02:43:22.452Z,1.40
2022-11-15T02:45:57.785Z,1.30
2022-11-15T02:48:26.254Z,1.30
2022-11-15T02:50:53.245Z,1.30
2022-11-15T02:53:25.257Z,1.30
2022-11-15T02:55:53.269Z,1.30
2022-11-15T02:58:42.460Z,1.30
2022-11-15T03:01:44.009Z,1.30
2022-11-15T03:04:43.223Z,1.20
2022-11-15T03:07:30.797Z,1.10
2022-11-15T03:10:13.110Z,1.20
2022-11-15T03:12:56.385Z,1.20
2022-11-15T03:15:27.096Z,1.10
2022-11-15T03:18:05.025Z,1.10
2022-11-15T03:20:33.882Z,1.10
2022-11-15T03:23:09.931Z,1.10
2022-11-15T03:25:42.187Z,1.10
2022-11-15T03:28:12.356Z,1.10
2022-11-15T03:30:40.908Z,1.10
2022-11-15T03:33:09.656Z,1.10
2022-11-15T03:35:43.257Z,1.10
2022-11-15T03:38:21.158Z,1.20
2022-11-15T03:40:56.900Z,1.30
2022-11-15T03:43:48.490Z,1.30
2022-11-15T03:46:23.787Z,1.30
2022-11-15T03:48:55.272Z,1.30
2022-11-15T03:51:22.140Z,1.30
2022-11-15T03:53:48.879Z,1.30
2022-11-15T03:56:15.650Z,1.40
2022-11-15T03:58:42.400Z,1.30
2022-11-15T04:01:09.169Z,1.20
2022-11-15T04:03:36.063Z,1.20
2022-11-15T04:06:02.803Z,1.10
2022-11-15T04:08:29.506Z,1.10
2022-11-15T04:10:56.857Z,1.00
2022-11-15T04:13:23.655Z,1.00
2022-11-15T04:15:50.411Z,1.00
2022-11-15T04:18:17.141Z,1.00
2022-11-15T04:21:02.436Z,0.90
2022-11-15T04:24:08.194Z,0.90
2022-11-15T04:26:35.250Z,0.90
2022-11-15T04:29:20.488Z,0.90
2022-11-15T04:31:47.311Z,1.00
2022-11-15T04:34:14.095Z,1.10
2022-11-15T04:36:59.256Z,1.20
2022-11-15T04:39:25.994Z,1.10
2022-11-15T04:41:52.718Z,1.00
2022-11-15T04:44:19.451Z,0.90
2022-11-15T04:46:46.202Z,0.80
2022-11-15T04:49:12.978Z,0.80
2022-11-15T04:51:39.691Z,0.80
2022-11-15T04:54:06.608Z,0.80
2022-11-15T04:56:33.315Z,0.80
2022-11-15T04:59:00.144Z,0.80
2022-11-15T05:01:27.014Z,0.70
2022-11-15T05:04:12.268Z,0.60
2022-11-15T05:06:38.986Z,0.60
2022-11-15T05:09:05.995Z,0.60
2022-11-15T05:11:33.076Z,0.60
2022-11-15T05:13:59.804Z,0.50
2022-11-15T05:16:26.520Z,0.50
2022-11-15T05:18:54.591Z,0.40
2022-11-15T05:21:21.959Z,0.40
2022-11-15T05:23:48.735Z,0.40
2022-11-15T05:26:17.365Z,0.30
2022-11-15T05:28:44.408Z,0.20
2022-11-15T05:31:14.358Z,0.30
2022-11-15T05:33:43.151Z,0.40
2022-11-15T05:36:19.263Z,0.40
2022-11-15T05:38:47.859Z,0.40
2022-11-15T05:41:16.586Z,0.40
2022-11-15T05:43:44.677Z,0.30
2022-11-15T05:46:11.752Z,0.40
2022-11-15T05:48:41.713Z,0.40
2022-11-15T05:51:08.835Z,0.40
2022-11-15T05:53:37.273Z,0.40
2022-11-15T05:56:06.596Z,0.40
2022-11-15T05:58:38.071Z,0.50
2022-11-15T06:01:05.507Z,0.50
2022-11-15T06:03:32.528Z,0.40
2022-11-15T06:05:59.580Z,0.50
2022-11-15T06:08:26.485Z,0.50
2022-11-15T06:10:53.234Z,0.60
2022-11-15T06:13:19.961Z,0.60
2022-11-15T06:15:46.764Z,0.60
2022-11-15T06:18:13.485Z,0.50
2022-11-15T06:20:40.528Z,0.40
2022-11-15T06:23:07.275Z,0.30
2022-11-15T06:25:33.988Z,0.40
2022-11-15T06:28:00.814Z,0.40
2022-11-15T06:30:28.412Z,0.40
2022-11-15T06:33:05.976Z,0.30
2022-11-15T06:35:35.350Z,0.40
2022-11-15T06:38:07.824Z,0.40
2022-11-15T06:40:39.246Z,0.50
2022-11-15T06:43:06.897Z,0.50
2022-11-15T06:45:33.875Z,0.60
2022-11-15T06:48:00.571Z,0.60
2022-11-15T06:50:27.452Z,0.50
2022-11-15T06:52:55.422Z,0.50
2022-11-15T06:55:22.125Z,0.40
2022-11-15T06:57:52.652Z,0.40
2022-11-15T07:00:21.804Z,0.30
2022-11-15T07:02:48.904Z,0.30
2022-11-15T07:05:16.180Z,0.40
2022-11-15T07:07:43.000Z,0.40
2022-11-15T07:10:10.201Z,0.30
2022-11-15T07:12:36.975Z,0.40
2022-11-15T07:15:04.004Z,0.40
2022-11-15T07:17:31.026Z,0.40
2022-11-15T07:19:57.735Z,0.50
2022-11-15T07:22:24.524Z,0.60
2022-11-15T07:24:51.238Z,0.60
2022-11-15T07:27:18.078Z,0.50
2022-11-15T07:29:45.040Z,0.60
2022-11-15T07:32:11.780Z,0.60
2022-11-15T07:34:38.494Z,0.60
2022-11-15T07:37:05.600Z,0.60
2022-11-15T07:39:32.350Z,0.60
2022-11-15T07:42:19.271Z,0.70
2022-11-15T07:44:45.984Z,0.60
2022-11-15T07:47:12.757Z,0.60
2022-11-15T07:49:39.496Z,0.70
2022-11-15T07:52:06.233Z,0.80
2022-11-15T07:54:33.073Z,0.90
2022-11-15T07:57:05.551Z,0.90
2022-11-15T07:59:34.107Z,0.90
2022-11-15T08:02:00.971Z,1.00
2022-11-15T08:04:27.816Z,1.00
2022-11-15T08:06:54.683Z,1.10
2022-11-15T08:09:21.541Z,1.20
2022-11-15T08:11:48.631Z,1.30
2022-11-15T08:14:15.360Z,1.40
2022-11-15T08:16:42.260Z,1.60
2022-11-15T08:19:09.043Z,1.70
2022-11-15T08:21:36.154Z,1.80
2022-11-15T08:24:03.109Z,1.80
2022-11-15T08:26:31.011Z,1.80
2022-11-15T08:28:57.841Z,2.00
2022-11-15T08:31:24.662Z,2.10
2022-11-15T08:33:51.452Z,2.30
2022-11-15T08:36:18.640Z,2.30
2022-11-15T08:38:45.385Z,2.50
2022-11-15T08:41:39.400Z,2.60
2022-11-15T08:44:06.328Z,2.70
2022-11-15T08:46:33.332Z,2.90
2022-11-15T08:49:00.028Z,2.80
2022-11-15T08:51:26.778Z,2.90
2022-11-15T08:53:53.517Z,3.00
2022-11-15T08:56:20.253Z,3.10
2022-11-15T08:58:47.833Z,3.00
2022-11-15T09:01:19.962Z,3.10
2022-11-15T09:03:46.861Z,3.10
2022-11-15T09:06:14.953Z,3.00
2022-11-15T09:08:49.290Z,3.00
2022-11-15T09:11:18.834Z,3.10
2022-11-15T09:13:45.673Z,3.10
2022-11-15T09:16:13.636Z,3.20
2022-11-15T09:18:40.386Z,3.30
2022-11-15T09:21:07.368Z,3.30
2022-11-15T09:23:34.176Z,3.50
2022-11-15T09:26:03.568Z,3.70
2022-11-15T09:28:31.533Z,3.80
2022-11-15T09:31:03.280Z,3.90
2022-11-15T09:33:30.859Z,4.10
2022-11-15T09:36:15.958Z,4.30
2022-11-15T09:38:42.708Z,4.50
2022-11-15T09:41:12.352Z,4.70
2022-11-15T09:44:21.180Z,5.00
2022-11-15T09:47:06.958Z,5.20
2022-11-15T09:49:34.080Z,5.50
2022-11-15T09:52:01.132Z,5.60
2022-11-15T09:57:49.227Z,5.80
2022-11-15T10:03:42.958Z,6.30
2022-11-15T10:06:19.143Z,6.40
2022-11-15T10:09:06.869Z,6.50
2022-11-15T10:11:38.149Z,6.70
2022-11-15T10:14:38.235Z,6.70
2022-11-15T10:17:29.297Z,6.80
2022-11-15T10:20:20.710Z,6.90
2022-11-15T10:23:05.554Z,7.20
2022-11-15T10:25:34.503Z,7.30
2022-11-15T10:28:23.582Z,7.40
2022-11-15T10:30:53.144Z,7.50
2022-11-15T10:33:37.303Z,7.70
2022-11-15T10:36:09.944Z,7.80
2022-11-15T10:38:49.463Z,7.90
2022-11-15T10:41:22.038Z,8.20
2022-11-15T10:44:09.531Z,8.30
2022-11-15T10:46:47.536Z,8.60
2022-11-15T10:49:21.421Z,8.90
2022-11-15T10:51:55.125Z,9.10
2022-11-15T10:54:31.733Z,9.20
2022-11-15T10:57:01.735Z,9.60
2022-11-15T10:59:38.755Z,9.90
2022-11-15T11:02:46.686Z,10.20
2022-11-15T11:05:30.141Z,10.40
2022-11-15T11:07:59.837Z,10.80
2022-11-15T11:10:50.523Z,11.00
2022-11-15T11:13:15.255Z,11.20
2022-11-15T11:15:47.118Z,11.30
2022-11-15T11:18:39.892Z,11.50
2022-11-15T11:21:13.892Z,11.50
2022-11-15T11:23:57.850Z,11.60
2022-11-15T11:26:33.670Z,11.80
2022-11-15T11:29:35.659Z,12.10
2022-11-15T11:32:34.155Z,12.30
2022-11-15T11:35:13.351Z,12.70
2022-11-15T11:37:54.194Z,13.00
2022-11-15T11:40:36.177Z,13.20
2022-11-15T11:43:37.977Z,13.50
2022-11-15T11:46:14.173Z,13.30
2022-11-15T11:48:42.196Z,13.70
2022-11-15T11:51:31.923Z,13.90
2022-11-15T11:54:06.554Z,14.30
2022-11-15T11:56:37.613Z,14.70
2022-11-15T11:59:38.194Z,15.10
2022-11-15T12:02:42.206Z,15.10
2022-11-15T12:05:19.576Z,15.50
2022-11-15T12:07:49.255Z,15.60
2022-11-15T12:10:25.776Z,15.70
2022-11-15T12:13:13.482Z,15.80
2022-11-15T12:16:10.849Z,15.40
2022-11-15T12:18:38.876Z,15.30
2022-11-15T12:21:15.703Z,15.40
2022-11-15T12:23:51.023Z,15.90
2022-11-15T12:26:25.768Z,16.30
2022-11-15T12:29:07.857Z,16.20
2022-11-15T12:31:35.413Z,15.90
2022-11-15T12:34:13.391Z,15.80
2022-11-15T12:36:45.160Z,15.50
2022-11-15T12:39:13.294Z,16.20
2022-11-15T12:41:43.299Z,17.00
2022-11-15T12:44:34.129Z,17.60
2022-11-15T12:47:23.448Z,18.30
2022-11-15T12:49:50.911Z,18.60
2022-11-15T12:52:18.027Z,18.80
2022-11-15T12:54:54.247Z,18.80
2022-11-15T12:57:20.984Z,19.10
2022-11-15T13:00:25.453Z,19.20
2022-11-15T13:03:19.393Z,19.30
2022-11-15T13:05:46.046Z,19.10
2022-11-15T13:08:39.328Z,19.30
2022-11-15T13:11:43.783Z,19.20
2022-11-15T13:14:38.404Z,19.20
2022-11-15T13:17:21.161Z,18.80
2022-11-15T13:19:53.159Z,18.60
2022-11-15T13:22:38.628Z,18.50
2022-11-15T13:25:16.997Z,18.70
2022-11-15T13:27:43.721Z,18.50
2022-11-15T13:30:20.448Z,18.30
2022-11-15T13:32:47.759Z,18.20
2022-11-15T13:35:24.841Z,18.10
2022-11-15T13:37:53.569Z,18.20
2022-11-15T13:40:35.559Z,17.90
2022-11-15T13:43:31.538Z,17.80
2022-11-15T13:46:13.945Z,17.90
2022-11-15T13:48:42.624Z,17.80
2022-11-15T13:51:15.177Z,17.50
2022-11-15T13:53:47.476Z,17.80
2022-11-15T13:56:17.616Z,17.90
2022-11-15T13:58:44.422Z,18.30
2022-11-15T14:01:21.578Z,18.50
2022-11-15T14:03:53.055Z,18.50
2022-11-15T14:06:22.596Z,18.80
2022-11-15T14:09:02.913Z,19.20
2022-11-15T14:11:30.308Z,18.80
2022-11-15T14:14:09.442Z,18.80
2022-11-15T14:16:44.076Z,18.80
2022-11-15T14:19:14.063Z,18.70
2022-11-15T14:22:14.160Z,18.50
2022-11-15T14:24:42.813Z,18.40
2022-11-15T14:27:30.051Z,18.30
2022-11-15T14:29:56.971Z,17.50
2022-11-15T14:32:26.740Z,17.30
2022-11-15T14:35:01.619Z,17.20
2022-11-15T14:37:35.607Z,16.80
2022-11-15T14:40:04.526Z,16.30
2022-11-15T14:42:32.759Z,16.00
2022-11-15T14:44:59.581Z,15.40
2022-11-15T14:47:26.329Z,15.00
2022-11-15T14:49:53.156Z,14.50
2022-11-15T14:52:34.371Z,14.10
2022-11-15T14:55:03.928Z,13.60
2022-11-15T14:57:31.776Z,13.10
2022-11-15T14:59:59.889Z,12.60
2022-11-15T15:02:27.887Z,12.30
2022-11-15T15:04:55.528Z,12.00
2022-11-15T15:07:23.885Z,11.80
2022-11-15T15:09:50.688Z,11.60
2022-11-15T15:12:24.180Z,11.40
2022-11-15T15:14:51.499Z,11.20
2022-11-15T15:17:18.843Z,10.90
2022-11-15T15:19:45.699Z,10.60
2022-11-15T15:22:20.219Z,10.40
2022-11-15T15:24:47.301Z,10.20
2022-11-15T15:27:14.624Z,10.00
2022-11-15T15:29:41.560Z,9.80
2022-11-15T15:32:10.021Z,9.50
2022-11-15T15:34:36.920Z,9.40
2022-11-15T15:37:26.048Z,9.10
2022-11-15T15:39:54.041Z,8.90
2022-11-15T15:42:22.188Z,8.80
2022-11-15T15:44:49.909Z,8.60
2022-11-15T15:47:20.432Z,8.40
2022-11-15T15:49:48.246Z,8.20
2022-11-15T15:52:15.155Z,8.10
2022-11-15T15:54:42.221Z,8.00
2022-11-15T15:57:12.283Z,7.90
2022-11-15T15:59:39.054Z,7.80
2022-11-15T16:02:06.999Z,7.80
2022-11-15T16:04:33.765Z,7.60
2022-11-15T16:07:01.705Z,7.40
2022-11-15T16:09:46.995Z,7.30
2022-11-15T16:12:15.253Z,7.20
2022-11-15T16:14:42.025Z,7.10
2022-11-15T16:17:34.635Z,6.90
2022-11-15T16:20:02.221Z,6.80
2022-11-15T16:22:30.072Z,6.80
2022-11-15T16:24:57.410Z,6.80
2022-11-15T16:27:24.591Z,6.70
2022-11-15T16:29:51.291Z,6.60
2022-11-15T16:32:18.242Z,6.40
2022-11-15T16:34:48.862Z,6.40
2022-11-15T16:37:25.239Z,6.40
2022-11-15T16:39:53.966Z,6.30
2022-11-15T16:42:25.026Z,6.30
2022-11-15T16:44:51.747Z,6.20
2022-11-15T16:47:22.858Z,6.00
2022-11-15T16:49:49.700Z,5.90
2022-11-15T16:52:21.185Z,5.80
2022-11-15T16:54:48.781Z,5.70
2022-11-15T16:57:16.453Z,5.60
2022-11-15T16:59:43.193Z,5.60
2022-11-15T17:02:13.476Z,5.40
2022-11-15T17:04:40.510Z,5.30
2022-11-15T17:07:08.198Z,5.30
2022-11-15T17:09:34.993Z,5.30
2022-11-15T17:12:01.781Z,5.30
2022-11-15T17:14:29.147Z,5.30
2022-11-15T17:16:55.831Z,5.40
2022-11-15T17:19:22.575Z,5.30
2022-11-15T17:21:49.617Z,5.40
2022-11-15T17:24:17.244Z,5.40
2022-11-15T17:26:44.238Z,5.30
2022-11-15T17:29:11.131Z,5.30
2022-11-15T17:31:38.369Z,5.20
2022-11-15T17:34:06.465Z,5.20
2022-11-15T17:36:34.171Z,5.00
2022-11-15T17:39:01.025Z,5.00
2022-11-15T17:41:29.043Z,5.00
2022-11-15T17:43:58.073Z,5.00
2022-11-15T17:46:25.619Z,4.90
2022-11-15T17:48:52.468Z,4.90
2022-11-15T17:51:19.391Z,4.90
2022-11-15T17:53:48.414Z,5.10
2022-11-15T17:56:18.309Z,5.10
2022-11-15T17:58:56.033Z,5.20
2022-11-15T18:01:25.394Z,5.20
2022-11-15T18:03:52.703Z,5.30
2022-11-15T18:06:21.080Z,5.30
2022-11-15T18:08:49.409Z,5.30
2022-11-15T18:11:20.736Z,5.30
2022-11-15T18:13:52.224Z,5.40
2022-11-15T18:16:21.572Z,5.30
2022-11-15T18:18:48.849Z,5.30
2022-11-15T18:21:18.687Z,5.30
2022-11-15T18:23:46.387Z,5.30
2022-11-15T18:26:17.749Z,5.30
2022-11-15T18:28:47.010Z,5.30
2022-11-15T18:31:18.312Z,5.30
2022-11-15T18:33:45.994Z,5.30
2022-11-15T18:36:15.368Z,5.20
2022-11-15T18:38:42.284Z,5.10
2022-11-15T18:41:24.578Z,5.10
2022-11-15T18:43:52.615Z,5.30
2022-11-15T18:46:21.554Z,5.20
2022-11-15T18:48:53.163Z,5.10
2022-11-15T18:51:22.771Z,5.20
2022-11-15T18:53:52.763Z,5.20
2022-11-15T18:56:21.149Z,5.20
2022-11-15T18:58:50.917Z,5.10
2022-11-15T19:01:20.214Z,5.10
2022-11-15T19:03:52.092Z,5.10
2022-11-15T19:06:24.520Z,5.10
2022-11-15T19:08:54.606Z,5.10
2022-11-15T19:11:32.687Z,5.20
2022-11-15T19:14:03.181Z,5.20
2022-11-15T19:16:33.180Z,5.20
2022-11-15T19:19:02.691Z,5.20
2022-11-15T19:21:31.254Z,5.20
2022-11-15T19:23:59.234Z,5.30
2022-11-15T19:26:27.176Z,5.30
2022-11-15T19:29:01.784Z,5.30
2022-11-15T19:31:31.357Z,5.30
2022-11-15T19:34:04.642Z,5.30
2022-11-15T19:36:32.839Z,5.20
2022-11-15T19:39:05.204Z,5.20
2022-11-15T19:41:32.296Z,5.20
2022-11-15T19:43:59.395Z,5.20
2022-11-15T19:46:27.016Z,5.20
2022-11-15T19:48:54.727Z,5.10
2022-11-15T19:51:23.808Z,5.20
2022-11-15T19:53:54.312Z,5.20
2022-11-15T19:56:21.812Z,5.30
2022-11-15T19:58:53.623Z,5.30
2022-11-15T20:01:22.868Z,5.30
2022-11-15T20:03:50.906Z,5.30
2022-11-15T20:06:19.633Z,5.30
2022-11-15T20:08:48.111Z,5.30
2022-11-15T20:11:16.069Z,5.30
2022-11-15T20:13:43.561Z,5.30
2022-11-15T20:16:16.571Z,5.30
2022-11-15T20:18:43.860Z,5.20
2022-11-15T20:21:11.997Z,5.20
2022-11-15T20:23:39.313Z,5.20
2022-11-15T20:26:08.088Z,5.20
2022-11-15T20:28:36.903Z,5.20
2022-11-15T20:31:04.345Z,5.10
2022-11-15T20:33:31.278Z,5.00
2022-11-15T20:35:58.105Z,5.00
2022-11-15T20:38:24.934Z,5.10
2022-11-15T20:40:57.434Z,5.10
2022-11-15T20:43:26.817Z,5.10
2022-11-15T20:45:53.552Z,5.10
2022-11-15T20:48:20.297Z,5.10
2022-11-15T20:50:47.170Z,5.10
2022-11-15T20:53:16.873Z,5.20
2022-11-15T20:55:47.709Z,5.10
2022-11-15T20:58:15.538Z,5.10
2022-11-15T21:00:44.638Z,5.10
2022-11-15T21:03:12.926Z,5.10
2022-11-15T21:05:42.095Z,5.10
2022-11-15T21:08:10.238Z,5.10
2022-11-15T21:10:55.436Z,5.10
2022-11-15T21:13:22.367Z,5.20
2022-11-15T21:15:49.157Z,5.20
2022-11-15T21:18:16.715Z,5.20
2022-11-15T21:20:43.511Z,5.20
2022-11-15T21:23:11.683Z,5.10
2022-11-15T21:25:38.364Z,5.20
2022-11-15T21:28:05.275Z,5.20
2022-11-15T21:30:32.004Z,5.20
2022-11-15T21:32:58.800Z,5.20
2022-11-15T21:35:25.644Z,5.10
2022-11-15T21:37:56.674Z,5.10
2022-11-15T21:40:24.704Z,5.10
2022-11-15T21:42:51.803Z,5.10
2022-11-15T21:45:18.564Z,5.10
2022-11-15T21:47:46.752Z,5.00
2022-11-15T21:50:14.453Z,5.00
2022-11-15T21:52:41.844Z,5.00
2022-11-15T21:55:09.401Z,5.00
2022-11-15T21:57:36.114Z,5.10
2022-11-15T22:00:22.277Z,5.10
2022-11-15T22:02:49.004Z,5.10
2022-11-15T22:05:16.030Z,5.10
2022-11-15T22:07:42.725Z,5.10
2022-11-15T22:10:09.639Z,5.10
2022-11-15T22:12:36.689Z,5.10
2022-11-15T22:15:03.943Z,5.20
2022-11-15T22:17:50.743Z,5.10
2022-11-15T22:20:42.821Z,5.20
2022-11-15T22:23:05.545Z,5.10
2022-11-15T22:25:32.958Z,5.10
2022-11-15T22:27:59.767Z,5.10
2022-11-15T22:30:26.856Z,5.00
2022-11-15T22:32:53.638Z,4.90
2022-11-15T22:35:21.368Z,5.00
2022-11-15T22:37:48.211Z,5.00
2022-11-15T22:40:14.983Z,5.00
2022-11-15T22:42:41.769Z,5.00
2022-11-15T22:45:08.846Z,4.90
2022-11-15T22:47:35.606Z,4.90
2022-11-15T22:50:02.536Z,5.00
2022-11-15T22:52:30.004Z,5.00
2022-11-15T22:54:57.974Z,5.00
2022-11-15T22:57:25.277Z,5.00
2022-11-15T22:59:52.008Z,5.00
2022-11-15T23:02:18.806Z,4.90
2022-11-15T23:04:45.726Z,4.90
2022-11-15T23:07:12.687Z,4.90
2022-11-15T23:09:39.505Z,4.90
2022-11-15T23:12:25.223Z,4.90
2022-11-15T23:14:52.070Z,4.90
2022-11-15T23:17:18.783Z,5.00
2022-11-15T23:19:45.584Z,5.00
2022-11-15T23:22:31.035Z,5.00
2022-11-15T23:24:59.532Z,5.00
2022-11-15T23:27:26.344Z,5.00
2022-11-15T23:30:11.535Z,5.00
2022-11-15T23:32:56.679Z,5.00
2022-11-15T23:35:23.449Z,5.00
2022-11-15T23:37:50.173Z,4.90
2022-11-15T23:40:17.201Z,4.90
2022-11-15T23:42:43.948Z,4.90
2022-11-15T23:45:10.893Z,4.90
2022-11-15T23:47:37.643Z,4.80
2022-11-15T23:50:04.677Z,4.80
2022-11-15T23:52:31.537Z,4.80
2022-11-15T23:54:58.382Z,4.80
2022-11-15T23:57:25.130Z,4.80
2022-11-15T23:59:51.899Z,4.80
